sensor_id;sensor_type;location;lat;lon;timestamp;temperature;humidity
68804;SHT31;55787;52.678;13.314;2023-07-31T00:00:14;13.97;97.76
68804;SHT31;55787;52.678;13.314;2023-07-31T00:02:41;13.93;97.95
68804;SHT31;55787;52.678;13.314;2023-07-31T00:05:08;13.83;98.03
68804;SHT31;55787;52.678;13.314;2023-07-31T00:07:35;13.73;98.16
68804;SHT31;55787;52.678;13.314;2023-07-31T00:10:02;13.67;98.26
68804;SHT31;55787;52.678;13.314;2023-07-31T00:12:29;13.65;98.57
68804;SHT31;55787;52.678;13.314;2023-07-31T00:14:55;13.63;98.77
68804;SHT31;55787;52.678;13.314;2023-07-31T00:17:22;13.59;98.85
68804;SHT31;55787;52.678;13.314;2023-07-31T00:19:49;13.58;99.05
68804;SHT31;55787;52.678;13.314;2023-07-31T00:22:17;13.58;99.01
68804;SHT31;55787;52.678;13.314;2023-07-31T00:24:43;13.56;99.20
68804;SHT31;55787;52.678;13.314;2023-07-31T00:27:10;13.52;98.98
68804;SHT31;55787;52.678;13.314;2023-07-31T00:29:37;13.51;99.14
68804;SHT31;55787;52.678;13.314;2023-07-31T00:32:04;13.45;99.14
68804;SHT31;55787;52.678;13.314;2023-07-31T00:34:31;13.46;99.57
68804;SHT31;55787;52.678;13.314;2023-07-31T00:36:57;13.43;99.26
68804;SHT31;55787;52.678;13.314;2023-07-31T00:39:24;13.45;99.42
68804;SHT31;55787;52.678;13.314;2023-07-31T00:41:50;13.51;99.89
68804;SHT31;55787;52.678;13.314;2023-07-31T00:44:17;13.61;99.99
68804;SHT31;55787;52.678;13.314;2023-07-31T00:46:44;13.65;99.95
68804;SHT31;55787;52.678;13.314;2023-07-31T00:49:11;13.67;99.88
68804;SHT31;55787;52.678;13.314;2023-07-31T00:51:38;13.73;99.84
68804;SHT31;55787;52.678;13.314;2023-07-31T00:54:06;13.73;99.72
68804;SHT31;55787;52.678;13.314;2023-07-31T00:56:33;13.76;99.74
68804;SHT31;55787;52.678;13.314;2023-07-31T00:59:00;13.74;99.43
68804;SHT31;55787;52.678;13.314;2023-07-31T01:01:27;13.82;99.73
68804;SHT31;55787;52.678;13.314;2023-07-31T01:03:54;13.80;99.53
68804;SHT31;55787;52.678;13.314;2023-07-31T01:12:01;13.86;99.84
68804;SHT31;55787;52.678;13.314;2023-07-31T01:14:29;13.89;99.93
68804;SHT31;55787;52.678;13.314;2023-07-31T01:16:56;13.93;99.89
68804;SHT31;55787;52.678;13.314;2023-07-31T01:19:24;13.91;99.63
68804;SHT31;55787;52.678;13.314;2023-07-31T01:27:31;14.00;99.69
68804;SHT31;55787;52.678;13.314;2023-07-31T01:30:08;14.03;99.90
68804;SHT31;55787;52.678;13.314;2023-07-31T01:32:42;14.04;99.79
68804;SHT31;55787;52.678;13.314;2023-07-31T01:35:10;14.06;99.37
68804;SHT31;55787;52.678;13.314;2023-07-31T01:37:37;14.07;99.38
68804;SHT31;55787;52.678;13.314;2023-07-31T01:40:06;14.07;99.43
68804;SHT31;55787;52.678;13.314;2023-07-31T01:42:33;14.09;99.17
68804;SHT31;55787;52.678;13.314;2023-07-31T01:45:00;14.10;98.97
68804;SHT31;55787;52.678;13.314;2023-07-31T01:47:26;14.10;98.62
68804;SHT31;55787;52.678;13.314;2023-07-31T01:49:53;14.13;98.50
68804;SHT31;55787;52.678;13.314;2023-07-31T01:52:20;14.14;98.22
68804;SHT31;55787;52.678;13.314;2023-07-31T01:54:46;14.13;98.45
68804;SHT31;55787;52.678;13.314;2023-07-31T01:57:13;14.17;98.37
68804;SHT31;55787;52.678;13.314;2023-07-31T01:59:40;14.20;98.53
68804;SHT31;55787;52.678;13.314;2023-07-31T02:02:06;14.16;98.53
68804;SHT31;55787;52.678;13.314;2023-07-31T02:04:33;14.18;98.66
68804;SHT31;55787;52.678;13.314;2023-07-31T02:07:00;14.20;98.97
68804;SHT31;55787;52.678;13.314;2023-07-31T02:09:27;14.21;99.00
68804;SHT31;55787;52.678;13.314;2023-07-31T02:11:54;14.24;99.16
68804;SHT31;55787;52.678;13.314;2023-07-31T02:14:20;14.24;99.26
68804;SHT31;55787;52.678;13.314;2023-07-31T02:16:47;14.23;98.81
68804;SHT31;55787;52.678;13.314;2023-07-31T02:19:17;14.20;98.59
68804;SHT31;55787;52.678;13.314;2023-07-31T02:21:44;14.23;99.02
68804;SHT31;55787;52.678;13.314;2023-07-31T02:24:10;14.24;99.10
68804;SHT31;55787;52.678;13.314;2023-07-31T02:26:40;14.24;99.31
68804;SHT31;55787;52.678;13.314;2023-07-31T02:29:09;14.23;99.19
68804;SHT31;55787;52.678;13.314;2023-07-31T02:31:36;14.21;99.54
68804;SHT31;55787;52.678;13.314;2023-07-31T02:34:02;14.23;99.44
68804;SHT31;55787;52.678;13.314;2023-07-31T02:36:29;14.20;99.67
68804;SHT31;55787;52.678;13.314;2023-07-31T02:38:56;14.24;99.80
68804;SHT31;55787;52.678;13.314;2023-07-31T02:41:23;14.24;99.76
68804;SHT31;55787;52.678;13.314;2023-07-31T02:43:50;14.24;99.99
68804;SHT31;55787;52.678;13.314;2023-07-31T02:46:16;14.25;99.83
68804;SHT31;55787;52.678;13.314;2023-07-31T02:48:43;14.27;99.98
68804;SHT31;55787;52.678;13.314;2023-07-31T02:51:09;14.28;99.99
68804;SHT31;55787;52.678;13.314;2023-07-31T02:53:36;14.27;99.99
68804;SHT31;55787;52.678;13.314;2023-07-31T02:56:03;14.30;99.99
68804;SHT31;55787;52.678;13.314;2023-07-31T02:58:29;14.28;99.99
68804;SHT31;55787;52.678;13.314;2023-07-31T03:00:58;14.27;99.69
68804;SHT31;55787;52.678;13.314;2023-07-31T03:03:25;14.31;99.99
68804;SHT31;55787;52.678;13.314;2023-07-31T03:05:51;14.28;99.98
68804;SHT31;55787;52.678;13.314;2023-07-31T03:08:20;14.30;99.99
68804;SHT31;55787;52.678;13.314;2023-07-31T03:10:46;14.32;99.99
68804;SHT31;55787;52.678;13.314;2023-07-31T03:13:13;14.32;99.99
68804;SHT31;55787;52.678;13.314;2023-07-31T03:15:42;14.28;99.99
68804;SHT31;55787;52.678;13.314;2023-07-31T03:18:09;14.32;99.99
68804;SHT31;55787;52.678;13.314;2023-07-31T03:20:36;14.35;99.99
68804;SHT31;55787;52.678;13.314;2023-07-31T03:23:03;14.35;99.99
68804;SHT31;55787;52.678;13.314;2023-07-31T03:25:30;14.35;99.99
68804;SHT31;55787;52.678;13.314;2023-07-31T03:27:57;14.32;99.99
68804;SHT31;55787;52.678;13.314;2023-07-31T03:30:23;14.32;99.99
68804;SHT31;55787;52.678;13.314;2023-07-31T03:32:50;14.31;99.99
68804;SHT31;55787;52.678;13.314;2023-07-31T03:35:17;14.32;99.99
68804;SHT31;55787;52.678;13.314;2023-07-31T03:37:43;14.34;99.99
68804;SHT31;55787;52.678;13.314;2023-07-31T03:40:10;14.32;99.99
68804;SHT31;55787;52.678;13.314;2023-07-31T03:42:37;14.37;99.99
68804;SHT31;55787;52.678;13.314;2023-07-31T03:45:04;14.35;99.99
68804;SHT31;55787;52.678;13.314;2023-07-31T03:47:31;14.38;99.99
68804;SHT31;55787;52.678;13.314;2023-07-31T03:49:58;14.38;99.99
68804;SHT31;55787;52.678;13.314;2023-07-31T03:52:24;14.38;99.99
68804;SHT31;55787;52.678;13.314;2023-07-31T03:54:51;14.38;99.99
68804;SHT31;55787;52.678;13.314;2023-07-31T03:57:18;14.38;99.99
68804;SHT31;55787;52.678;13.314;2023-07-31T03:59:44;14.37;99.99
68804;SHT31;55787;52.678;13.314;2023-07-31T04:02:11;14.40;99.99
68804;SHT31;55787;52.678;13.314;2023-07-31T04:04:41;14.42;99.99
68804;SHT31;55787;52.678;13.314;2023-07-31T04:07:07;14.42;99.99
68804;SHT31;55787;52.678;13.314;2023-07-31T04:09:34;14.49;99.99
68804;SHT31;55787;52.678;13.314;2023-07-31T04:12:00;14.52;99.99
68804;SHT31;55787;52.678;13.314;2023-07-31T04:14:28;14.54;99.99
68804;SHT31;55787;52.678;13.314;2023-07-31T04:16:54;14.55;99.99
68804;SHT31;55787;52.678;13.314;2023-07-31T04:19:21;14.58;99.99
68804;SHT31;55787;52.678;13.314;2023-07-31T04:21:48;14.60;99.99
68804;SHT31;55787;52.678;13.314;2023-07-31T04:24:14;14.61;99.99
68804;SHT31;55787;52.678;13.314;2023-07-31T04:26:41;14.62;99.99
68804;SHT31;55787;52.678;13.314;2023-07-31T04:29:08;14.65;99.99
68804;SHT31;55787;52.678;13.314;2023-07-31T04:31:35;14.69;99.99
68804;SHT31;55787;52.678;13.314;2023-07-31T04:34:05;14.72;99.96
68804;SHT31;55787;52.678;13.314;2023-07-31T04:36:31;14.69;99.39
68804;SHT31;55787;52.678;13.314;2023-07-31T04:38:58;14.71;99.76
68804;SHT31;55787;52.678;13.314;2023-07-31T04:41:24;14.75;99.75
68804;SHT31;55787;52.678;13.314;2023-07-31T04:43:51;14.72;99.07
68804;SHT31;55787;52.678;13.314;2023-07-31T04:46:18;14.73;99.56
68804;SHT31;55787;52.678;13.314;2023-07-31T04:48:45;14.72;99.43
68804;SHT31;55787;52.678;13.314;2023-07-31T04:51:11;14.67;99.43
68804;SHT31;55787;52.678;13.314;2023-07-31T04:53:38;14.71;99.53
68804;SHT31;55787;52.678;13.314;2023-07-31T04:56:05;14.73;99.53
68804;SHT31;55787;52.678;13.314;2023-07-31T04:58:31;14.76;99.58
68804;SHT31;55787;52.678;13.314;2023-07-31T05:00:58;14.81;99.69
68804;SHT31;55787;52.678;13.314;2023-07-31T05:03:25;14.88;99.88
68804;SHT31;55787;52.678;13.314;2023-07-31T05:05:52;14.82;99.09
68804;SHT31;55787;52.678;13.314;2023-07-31T05:08:18;14.83;99.14
68804;SHT31;55787;52.678;13.314;2023-07-31T05:10:45;14.85;99.03
68804;SHT31;55787;52.678;13.314;2023-07-31T05:13:12;14.89;99.17
68804;SHT31;55787;52.678;13.314;2023-07-31T05:15:38;14.96;99.40
68804;SHT31;55787;52.678;13.314;2023-07-31T05:18:05;15.02;98.76
68804;SHT31;55787;52.678;13.314;2023-07-31T05:20:32;14.96;98.44
68804;SHT31;55787;52.678;13.314;2023-07-31T05:22:58;15.03;98.43
68804;SHT31;55787;52.678;13.314;2023-07-31T05:25:25;15.07;98.49
68804;SHT31;55787;52.678;13.314;2023-07-31T05:27:52;15.13;98.41
68804;SHT31;55787;52.678;13.314;2023-07-31T05:30:19;15.13;97.63
68804;SHT31;55787;52.678;13.314;2023-07-31T05:32:46;15.22;98.53
68804;SHT31;55787;52.678;13.314;2023-07-31T05:35:12;15.29;98.20
68804;SHT31;55787;52.678;13.314;2023-07-31T05:37:40;15.26;98.16
68804;SHT31;55787;52.678;13.314;2023-07-31T05:40:07;15.30;97.95
68804;SHT31;55787;52.678;13.314;2023-07-31T05:42:33;15.36;98.16
68804;SHT31;55787;52.678;13.314;2023-07-31T05:45:01;15.41;98.31
68804;SHT31;55787;52.678;13.314;2023-07-31T05:47:28;15.41;97.66
68804;SHT31;55787;52.678;13.314;2023-07-31T05:49:54;15.34;97.77
68804;SHT31;55787;52.678;13.314;2023-07-31T05:52:21;15.43;97.99
68804;SHT31;55787;52.678;13.314;2023-07-31T05:54:48;15.50;98.16
68804;SHT31;55787;52.678;13.314;2023-07-31T05:57:14;15.50;97.88
68804;SHT31;55787;52.678;13.314;2023-07-31T05:59:41;15.57;98.12
68804;SHT31;55787;52.678;13.314;2023-07-31T06:02:07;15.55;97.83
68804;SHT31;55787;52.678;13.314;2023-07-31T06:04:34;15.61;98.11
68804;SHT31;55787;52.678;13.314;2023-07-31T06:07:01;15.71;98.34
68804;SHT31;55787;52.678;13.314;2023-07-31T06:09:28;15.74;98.08
68804;SHT31;55787;52.678;13.314;2023-07-31T06:11:54;15.80;97.98
68804;SHT31;55787;52.678;13.314;2023-07-31T06:14:21;15.61;97.55
68804;SHT31;55787;52.678;13.314;2023-07-31T06:16:48;15.75;98.10
68804;SHT31;55787;52.678;13.314;2023-07-31T06:19:14;15.78;98.14
68804;SHT31;55787;52.678;13.314;2023-07-31T06:21:41;15.81;97.36
68804;SHT31;55787;52.678;13.314;2023-07-31T06:24:10;15.85;97.74
68804;SHT31;55787;52.678;13.314;2023-07-31T06:26:38;15.90;96.74
68804;SHT31;55787;52.678;13.314;2023-07-31T06:29:05;15.95;96.60
68804;SHT31;55787;52.678;13.314;2023-07-31T06:31:32;16.02;97.15
68804;SHT31;55787;52.678;13.314;2023-07-31T06:33:58;15.90;95.88
68804;SHT31;55787;52.678;13.314;2023-07-31T06:36:25;15.90;97.24
68804;SHT31;55787;52.678;13.314;2023-07-31T06:38:52;15.95;97.20
68804;SHT31;55787;52.678;13.314;2023-07-31T06:41:18;16.01;96.45
68804;SHT31;55787;52.678;13.314;2023-07-31T06:43:45;16.00;96.09
68804;SHT31;55787;52.678;13.314;2023-07-31T06:46:12;16.16;96.35
68804;SHT31;55787;52.678;13.314;2023-07-31T06:48:39;16.25;96.36
68804;SHT31;55787;52.678;13.314;2023-07-31T06:51:05;16.32;96.79
68804;SHT31;55787;52.678;13.314;2023-07-31T06:53:32;16.09;95.55
68804;SHT31;55787;52.678;13.314;2023-07-31T06:55:59;16.13;96.43
68804;SHT31;55787;52.678;13.314;2023-07-31T06:58:25;16.21;96.22
68804;SHT31;55787;52.678;13.314;2023-07-31T07:00:52;16.16;95.66
68804;SHT31;55787;52.678;13.314;2023-07-31T07:03:19;16.11;96.39
68804;SHT31;55787;52.678;13.314;2023-07-31T07:05:47;16.21;96.21
68804;SHT31;55787;52.678;13.314;2023-07-31T07:08:15;16.29;96.66
68804;SHT31;55787;52.678;13.314;2023-07-31T07:10:41;16.33;96.28
68804;SHT31;55787;52.678;13.314;2023-07-31T07:13:08;16.05;96.25
68804;SHT31;55787;52.678;13.314;2023-07-31T07:15:35;16.11;97.21
68804;SHT31;55787;52.678;13.314;2023-07-31T07:18:01;16.08;95.92
68804;SHT31;55787;52.678;13.314;2023-07-31T07:20:29;16.29;96.14
68804;SHT31;55787;52.678;13.314;2023-07-31T07:22:56;16.28;96.34
68804;SHT31;55787;52.678;13.314;2023-07-31T07:25:23;16.09;95.67
68804;SHT31;55787;52.678;13.314;2023-07-31T07:27:50;16.26;96.43
68804;SHT31;55787;52.678;13.314;2023-07-31T07:30:16;16.16;96.22
68804;SHT31;55787;52.678;13.314;2023-07-31T07:32:44;16.30;96.51
68804;SHT31;55787;52.678;13.314;2023-07-31T07:35:11;16.40;96.33
68804;SHT31;55787;52.678;13.314;2023-07-31T07:37:39;16.55;96.24
68804;SHT31;55787;52.678;13.314;2023-07-31T07:40:06;16.63;95.72
68804;SHT31;55787;52.678;13.314;2023-07-31T07:42:33;16.66;95.68
68804;SHT31;55787;52.678;13.314;2023-07-31T07:45:00;16.73;95.89
68804;SHT31;55787;52.678;13.314;2023-07-31T07:47:26;16.80;95.59
68804;SHT31;55787;52.678;13.314;2023-07-31T07:49:55;16.84;95.24
68804;SHT31;55787;52.678;13.314;2023-07-31T07:52:21;16.80;94.93
68804;SHT31;55787;52.678;13.314;2023-07-31T07:54:48;16.95;95.90
68804;SHT31;55787;52.678;13.314;2023-07-31T07:57:15;17.08;94.16
68804;SHT31;55787;52.678;13.314;2023-07-31T07:59:41;16.93;94.36
68804;SHT31;55787;52.678;13.314;2023-07-31T08:02:08;16.79;94.70
68804;SHT31;55787;52.678;13.314;2023-07-31T08:04:35;16.84;94.94
68804;SHT31;55787;52.678;13.314;2023-07-31T08:07:02;16.63;95.30
68804;SHT31;55787;52.678;13.314;2023-07-31T08:09:28;16.57;95.24
68804;SHT31;55787;52.678;13.314;2023-07-31T08:11:55;16.52;96.84
68804;SHT31;55787;52.678;13.314;2023-07-31T08:14:24;16.29;96.40
68804;SHT31;55787;52.678;13.314;2023-07-31T08:16:51;16.36;96.63
68804;SHT31;55787;52.678;13.314;2023-07-31T08:19:17;16.40;96.60
68804;SHT31;55787;52.678;13.314;2023-07-31T08:21:45;16.50;96.12
68804;SHT31;55787;52.678;13.314;2023-07-31T08:24:11;16.64;94.79
68804;SHT31;55787;52.678;13.314;2023-07-31T08:26:38;16.85;94.96
68804;SHT31;55787;52.678;13.314;2023-07-31T08:29:05;16.79;95.68
68804;SHT31;55787;52.678;13.314;2023-07-31T08:31:32;16.74;96.12
68804;SHT31;55787;52.678;13.314;2023-07-31T08:34:00;16.77;96.13
68804;SHT31;55787;52.678;13.314;2023-07-31T08:36:26;16.88;95.84
68804;SHT31;55787;52.678;13.314;2023-07-31T08:38:56;16.69;95.63
68804;SHT31;55787;52.678;13.314;2023-07-31T08:41:22;16.77;95.45
68804;SHT31;55787;52.678;13.314;2023-07-31T08:43:50;16.76;95.17
68804;SHT31;55787;52.678;13.314;2023-07-31T08:46:17;17.04;96.01
68804;SHT31;55787;52.678;13.314;2023-07-31T08:48:45;17.25;94.36
68804;SHT31;55787;52.678;13.314;2023-07-31T08:51:14;17.30;94.68
68804;SHT31;55787;52.678;13.314;2023-07-31T08:53:41;17.22;93.75
68804;SHT31;55787;52.678;13.314;2023-07-31T08:56:09;16.93;95.35
68804;SHT31;55787;52.678;13.314;2023-07-31T08:58:37;16.84;96.12
68804;SHT31;55787;52.678;13.314;2023-07-31T09:01:04;16.79;95.00
68804;SHT31;55787;52.678;13.314;2023-07-31T09:03:35;16.85;94.73
68804;SHT31;55787;52.678;13.314;2023-07-31T09:06:03;17.03;95.20
68804;SHT31;55787;52.678;13.314;2023-07-31T09:08:32;17.41;94.37
68804;SHT31;55787;52.678;13.314;2023-07-31T09:11:02;17.52;93.97
68804;SHT31;55787;52.678;13.314;2023-07-31T09:13:32;17.79;93.38
68804;SHT31;55787;52.678;13.314;2023-07-31T09:15:59;17.76;92.28
68804;SHT31;55787;52.678;13.314;2023-07-31T09:18:26;17.56;93.14
68804;SHT31;55787;52.678;13.314;2023-07-31T09:21:05;17.85;92.19
68804;SHT31;55787;52.678;13.314;2023-07-31T09:23:43;17.90;93.61
68804;SHT31;55787;52.678;13.314;2023-07-31T09:26:10;17.83;91.66
68804;SHT31;55787;52.678;13.314;2023-07-31T09:28:37;17.68;92.39
68804;SHT31;55787;52.678;13.314;2023-07-31T09:31:04;17.43;94.33
68804;SHT31;55787;52.678;13.314;2023-07-31T09:33:30;17.41;94.02
68804;SHT31;55787;52.678;13.314;2023-07-31T09:36:25;17.30;95.52
68804;SHT31;55787;52.678;13.314;2023-07-31T09:38:52;17.34;94.38
68804;SHT31;55787;52.678;13.314;2023-07-31T09:41:18;16.90;93.73
68804;SHT31;55787;52.678;13.314;2023-07-31T09:43:53;17.06;95.25
68804;SHT31;55787;52.678;13.314;2023-07-31T09:46:21;17.08;94.97
68804;SHT31;55787;52.678;13.314;2023-07-31T09:48:48;16.67;95.36
68804;SHT31;55787;52.678;13.314;2023-07-31T09:51:14;16.70;96.06
68804;SHT31;55787;52.678;13.314;2023-07-31T09:53:41;16.81;95.88
68804;SHT31;55787;52.678;13.314;2023-07-31T09:56:17;16.93;95.95
68804;SHT31;55787;52.678;13.314;2023-07-31T09:58:44;16.88;95.49
68804;SHT31;55787;52.678;13.314;2023-07-31T10:01:12;16.97;95.51
68804;SHT31;55787;52.678;13.314;2023-07-31T10:03:40;17.08;95.53
68804;SHT31;55787;52.678;13.314;2023-07-31T10:06:09;16.94;94.93
68804;SHT31;55787;52.678;13.314;2023-07-31T10:08:36;16.93;95.18
68804;SHT31;55787;52.678;13.314;2023-07-31T10:11:04;16.87;95.18
68804;SHT31;55787;52.678;13.314;2023-07-31T10:13:31;16.95;95.38
68804;SHT31;55787;52.678;13.314;2023-07-31T10:15:59;17.04;94.85
68804;SHT31;55787;52.678;13.314;2023-07-31T10:18:28;16.76;95.85
68804;SHT31;55787;52.678;13.314;2023-07-31T10:20:55;16.73;95.86
68804;SHT31;55787;52.678;13.314;2023-07-31T10:23:24;16.81;95.83
68804;SHT31;55787;52.678;13.314;2023-07-31T10:25:53;16.85;96.23
68804;SHT31;55787;52.678;13.314;2023-07-31T10:28:21;16.94;95.90
68804;SHT31;55787;52.678;13.314;2023-07-31T10:30:48;17.12;95.72
68804;SHT31;55787;52.678;13.314;2023-07-31T10:33:16;17.20;94.75
68804;SHT31;55787;52.678;13.314;2023-07-31T10:35:43;17.12;96.06
68804;SHT31;55787;52.678;13.314;2023-07-31T10:38:11;17.18;95.30
68804;SHT31;55787;52.678;13.314;2023-07-31T10:40:39;17.14;95.75
68804;SHT31;55787;52.678;13.314;2023-07-31T10:43:05;17.00;96.40
68804;SHT31;55787;52.678;13.314;2023-07-31T10:45:39;17.08;95.56
68804;SHT31;55787;52.678;13.314;2023-07-31T10:48:12;17.12;96.20
68804;SHT31;55787;52.678;13.314;2023-07-31T10:50:55;17.32;95.62
68804;SHT31;55787;52.678;13.314;2023-07-31T10:53:28;17.90;95.03
68804;SHT31;55787;52.678;13.314;2023-07-31T10:55:59;18.13;94.03
68804;SHT31;55787;52.678;13.314;2023-07-31T10:58:26;18.61;91.70
68804;SHT31;55787;52.678;13.314;2023-07-31T11:00:56;18.82;91.33
68804;SHT31;55787;52.678;13.314;2023-07-31T11:03:49;19.10;90.54
68804;SHT31;55787;52.678;13.314;2023-07-31T11:06:18;19.37;88.42
68804;SHT31;55787;52.678;13.314;2023-07-31T11:08:50;19.23;89.92
68804;SHT31;55787;52.678;13.314;2023-07-31T11:11:18;19.01;89.75
68804;SHT31;55787;52.678;13.314;2023-07-31T11:13:50;19.08;91.07
68804;SHT31;55787;52.678;13.314;2023-07-31T11:16:22;18.96;90.90
68804;SHT31;55787;52.678;13.314;2023-07-31T11:18:50;18.73;91.41
68804;SHT31;55787;52.678;13.314;2023-07-31T11:21:21;18.85;90.70
68804;SHT31;55787;52.678;13.314;2023-07-31T11:23:53;18.87;91.51
68804;SHT31;55787;52.678;13.314;2023-07-31T11:26:20;18.99;90.97
68804;SHT31;55787;52.678;13.314;2023-07-31T11:28:47;19.23;89.48
68804;SHT31;55787;52.678;13.314;2023-07-31T11:31:14;19.29;89.84
68804;SHT31;55787;52.678;13.314;2023-07-31T11:33:41;19.41;89.42
68804;SHT31;55787;52.678;13.314;2023-07-31T11:36:17;18.95;90.27
68804;SHT31;55787;52.678;13.314;2023-07-31T11:38:45;18.72;90.97
68804;SHT31;55787;52.678;13.314;2023-07-31T11:41:14;18.75;90.75
68804;SHT31;55787;52.678;13.314;2023-07-31T11:43:41;19.34;89.48
68804;SHT31;55787;52.678;13.314;2023-07-31T11:46:07;19.80;89.15
68804;SHT31;55787;52.678;13.314;2023-07-31T11:48:35;20.00;87.03
68804;SHT31;55787;52.678;13.314;2023-07-31T11:51:04;19.74;86.67
68804;SHT31;55787;52.678;13.314;2023-07-31T11:53:47;19.36;84.44
68804;SHT31;55787;52.678;13.314;2023-07-31T11:56:18;19.33;84.98
68804;SHT31;55787;52.678;13.314;2023-07-31T11:58:57;19.50;84.95
68804;SHT31;55787;52.678;13.314;2023-07-31T12:01:26;19.40;84.30
68804;SHT31;55787;52.678;13.314;2023-07-31T12:03:54;19.50;85.15
68804;SHT31;55787;52.678;13.314;2023-07-31T12:06:21;19.29;83.89
68804;SHT31;55787;52.678;13.314;2023-07-31T12:08:48;19.36;84.52
68804;SHT31;55787;52.678;13.314;2023-07-31T12:11:15;19.26;84.32
68804;SHT31;55787;52.678;13.314;2023-07-31T12:13:44;18.91;84.28
68804;SHT31;55787;52.678;13.314;2023-07-31T12:16:11;19.06;85.89
68804;SHT31;55787;52.678;13.314;2023-07-31T12:18:38;18.91;87.30
68804;SHT31;55787;52.678;13.314;2023-07-31T12:21:06;18.89;87.65
68804;SHT31;55787;52.678;13.314;2023-07-31T12:23:36;18.82;86.14
68804;SHT31;55787;52.678;13.314;2023-07-31T12:26:09;18.92;86.95
68804;SHT31;55787;52.678;13.314;2023-07-31T12:31:05;19.12;84.69
68804;SHT31;55787;52.678;13.314;2023-07-31T12:33:34;19.22;85.52
68804;SHT31;55787;52.678;13.314;2023-07-31T12:36:03;19.12;86.54
68804;SHT31;55787;52.678;13.314;2023-07-31T12:38:30;19.12;86.56
68804;SHT31;55787;52.678;13.314;2023-07-31T12:40:57;19.02;86.15
68804;SHT31;55787;52.678;13.314;2023-07-31T12:43:24;18.52;87.73
68804;SHT31;55787;52.678;13.314;2023-07-31T12:45:50;18.13;91.20
68804;SHT31;55787;52.678;13.314;2023-07-31T12:48:17;18.17;90.44
68804;SHT31;55787;52.678;13.314;2023-07-31T12:50:44;18.16;91.40
68804;SHT31;55787;52.678;13.314;2023-07-31T12:53:10;18.16;90.64
68804;SHT31;55787;52.678;13.314;2023-07-31T12:55:37;18.11;91.31
68804;SHT31;55787;52.678;13.314;2023-07-31T12:58:04;18.23;92.13
68804;SHT31;55787;52.678;13.314;2023-07-31T13:00:30;18.65;91.42
68804;SHT31;55787;52.678;13.314;2023-07-31T13:02:57;18.76;90.45
68804;SHT31;55787;52.678;13.314;2023-07-31T13:05:24;19.16;90.25
68804;SHT31;55787;52.678;13.314;2023-07-31T13:07:50;19.06;88.31
68804;SHT31;55787;52.678;13.314;2023-07-31T13:10:19;19.22;88.88
68804;SHT31;55787;52.678;13.314;2023-07-31T13:12:46;19.51;88.88
68804;SHT31;55787;52.678;13.314;2023-07-31T13:15:14;19.37;87.25
68804;SHT31;55787;52.678;13.314;2023-07-31T13:17:41;19.73;88.84
68804;SHT31;55787;52.678;13.314;2023-07-31T13:20:08;19.41;87.48
68804;SHT31;55787;52.678;13.314;2023-07-31T13:22:34;19.32;86.95
68804;SHT31;55787;52.678;13.314;2023-07-31T13:25:01;19.06;87.90
68804;SHT31;55787;52.678;13.314;2023-07-31T13:27:28;19.33;88.01
68804;SHT31;55787;52.678;13.314;2023-07-31T13:29:54;19.37;88.27
68804;SHT31;55787;52.678;13.314;2023-07-31T13:32:21;19.39;86.41
68804;SHT31;55787;52.678;13.314;2023-07-31T13:34:48;19.46;86.86
68804;SHT31;55787;52.678;13.314;2023-07-31T13:37:15;19.77;86.35
68804;SHT31;55787;52.678;13.314;2023-07-31T13:39:42;19.91;86.50
68804;SHT31;55787;52.678;13.314;2023-07-31T13:42:09;20.00;85.59
68804;SHT31;55787;52.678;13.314;2023-07-31T13:44:39;19.97;85.63
68804;SHT31;55787;52.678;13.314;2023-07-31T13:47:06;19.94;85.74
68804;SHT31;55787;52.678;13.314;2023-07-31T13:49:34;19.75;84.61
68804;SHT31;55787;52.678;13.314;2023-07-31T13:52:01;19.87;84.89
68804;SHT31;55787;52.678;13.314;2023-07-31T13:54:28;20.18;85.28
68804;SHT31;55787;52.678;13.314;2023-07-31T14:00:43;19.92;86.39
68804;SHT31;55787;52.678;13.314;2023-07-31T14:03:10;19.90;84.92
68804;SHT31;55787;52.678;13.314;2023-07-31T14:05:37;20.07;85.37
68804;SHT31;55787;52.678;13.314;2023-07-31T14:08:04;19.98;84.63
68804;SHT31;55787;52.678;13.314;2023-07-31T14:10:31;20.08;87.20
68804;SHT31;55787;52.678;13.314;2023-07-31T14:12:57;19.74;86.36
68804;SHT31;55787;52.678;13.314;2023-07-31T14:15:24;19.66;85.99
68804;SHT31;55787;52.678;13.314;2023-07-31T14:17:51;19.49;86.58
68804;SHT31;55787;52.678;13.314;2023-07-31T14:20:18;19.43;87.83
68804;SHT31;55787;52.678;13.314;2023-07-31T14:26:33;19.45;86.49
68804;SHT31;55787;52.678;13.314;2023-07-31T14:28:59;19.50;86.84
68804;SHT31;55787;52.678;13.314;2023-07-31T14:31:26;19.63;87.03
68804;SHT31;55787;52.678;13.314;2023-07-31T14:33:53;19.51;85.44
68804;SHT31;55787;52.678;13.314;2023-07-31T14:36:23;19.59;87.34
68804;SHT31;55787;52.678;13.314;2023-07-31T14:38:50;19.66;86.59
68804;SHT31;55787;52.678;13.314;2023-07-31T14:41:16;19.67;88.51
68804;SHT31;55787;52.678;13.314;2023-07-31T14:43:43;19.63;86.74
68804;SHT31;55787;52.678;13.314;2023-07-31T14:46:09;19.54;85.88
68804;SHT31;55787;52.678;13.314;2023-07-31T14:48:36;19.43;86.16
68804;SHT31;55787;52.678;13.314;2023-07-31T14:51:03;19.43;86.51
68804;SHT31;55787;52.678;13.314;2023-07-31T14:53:30;19.39;86.36
68804;SHT31;55787;52.678;13.314;2023-07-31T14:55:56;19.50;86.87
68804;SHT31;55787;52.678;13.314;2023-07-31T14:58:23;19.41;84.32
68804;SHT31;55787;52.678;13.314;2023-07-31T15:00:50;19.54;84.48
68804;SHT31;55787;52.678;13.314;2023-07-31T15:03:17;19.67;84.79
68804;SHT31;55787;52.678;13.314;2023-07-31T15:05:44;19.74;85.95
68804;SHT31;55787;52.678;13.314;2023-07-31T15:08:11;19.77;85.07
68804;SHT31;55787;52.678;13.314;2023-07-31T15:10:38;19.80;85.13
68804;SHT31;55787;52.678;13.314;2023-07-31T15:13:04;19.73;84.04
68804;SHT31;55787;52.678;13.314;2023-07-31T15:23:12;20.17;82.76
68804;SHT31;55787;52.678;13.314;2023-07-31T15:25:39;20.36;83.47
68804;SHT31;55787;52.678;13.314;2023-07-31T15:28:06;20.55;81.52
68804;SHT31;55787;52.678;13.314;2023-07-31T15:30:33;20.59;81.37
68804;SHT31;55787;52.678;13.314;2023-07-31T15:33:01;20.40;79.37
68804;SHT31;55787;52.678;13.314;2023-07-31T15:35:28;20.42;80.73
68804;SHT31;55787;52.678;13.314;2023-07-31T15:37:55;20.24;80.43
68804;SHT31;55787;52.678;13.314;2023-07-31T15:40:21;20.25;79.99
68804;SHT31;55787;52.678;13.314;2023-07-31T15:42:49;20.04;79.42
68804;SHT31;55787;52.678;13.314;2023-07-31T15:45:15;19.95;80.87